sensor_id;sensor_type;location;lat;lon;timestamp;P1;durP1;ratioP1;P2;durP2;ratioP2
56321;SDS011;42227;6.376;-10.782;2023-08-30T00:01:42;39.20;;;29.63;;
56321;SDS011;42227;6.376;-10.782;2023-08-30T00:04:11;28.33;;;21.60;;
56321;SDS011;42227;6.376;-10.782;2023-08-30T00:06:39;20.45;;;14.95;;
56321;SDS011;42227;6.376;-10.782;2023-08-30T00:09:08;16.75;;;13.10;;
56321;SDS011;42227;6.376;-10.782;2023-08-30T00:11:36;15.50;;;13.93;;
56321;SDS011;42227;6.376;-10.782;2023-08-30T00:14:06;22.65;;;13.57;;
56321;SDS011;42227;6.376;-10.782;2023-08-30T00:16:35;24.40;;;14.30;;
56321;SDS011;42227;6.376;-10.782;2023-08-30T00:19:04;14.98;;;12.40;;
56321;SDS011;42227;6.376;-10.782;2023-08-30T00:21:33;18.20;;;12.02;;
56321;SDS011;42227;6.376;-10.782;2023-08-30T00:24:02;20.70;;;11.18;;
56321;SDS011;42227;6.376;-10.782;2023-08-30T00:26:30;19.95;;;12.63;;
56321;SDS011;42227;6.376;-10.782;2023-08-30T00:29:02;17.88;;;11.68;;
56321;SDS011;42227;6.376;-10.782;2023-08-30T00:31:30;22.45;;;11.80;;
56321;SDS011;42227;6.376;-10.782;2023-08-30T00:33:58;18.92;;;12.38;;
56321;SDS011;42227;6.376;-10.782;2023-08-30T00:36:27;21.33;;;12.75;;
56321;SDS011;42227;6.376;-10.782;2023-08-30T00:38:55;17.20;;;11.23;;
56321;SDS011;42227;6.376;-10.782;2023-08-30T00:41:24;17.77;;;11.70;;
56321;SDS011;42227;6.376;-10.782;2023-08-30T00:43:52;13.52;;;9.23;;
56321;SDS011;42227;6.376;-10.782;2023-08-30T00:46:21;11.13;;;9.60;;
56321;SDS011;42227;6.376;-10.782;2023-08-30T00:48:49;20.38;;;10.10;;
56321;SDS011;42227;6.376;-10.782;2023-08-30T00:51:18;15.75;;;9.32;;
56321;SDS011;42227;6.376;-10.782;2023-08-30T00:53:48;13.30;;;9.20;;
56321;SDS011;42227;6.376;-10.782;2023-08-30T00:56:16;17.23;;;14.35;;
56321;SDS011;42227;6.376;-10.782;2023-08-30T00:58:47;17.38;;;14.55;;
56321;SDS011;42227;6.376;-10.782;2023-08-30T01:01:17;13.73;;;12.23;;
56321;SDS011;42227;6.376;-10.782;2023-08-30T01:03:45;18.35;;;10.93;;
56321;SDS011;42227;6.376;-10.782;2023-08-30T01:06:14;20.60;;;11.70;;
56321;SDS011;42227;6.376;-10.782;2023-08-30T01:08:43;22.55;;;10.10;;
56321;SDS011;42227;6.376;-10.782;2023-08-30T01:13:56;14.73;;;9.90;;
56321;SDS011;42227;6.376;-10.782;2023-08-30T01:16:37;12.80;;;9.05;;
56321;SDS011;42227;6.376;-10.782;2023-08-30T01:22:53;17.33;;;9.13;;
56321;SDS011;42227;6.376;-10.782;2023-08-30T01:25:31;14.73;;;9.35;;
56321;SDS011;42227;6.376;-10.782;2023-08-30T01:28:23;9.32;;;6.95;;
56321;SDS011;42227;6.376;-10.782;2023-08-30T01:30:54;14.00;;;8.18;;
56321;SDS011;42227;6.376;-10.782;2023-08-30T01:33:25;17.38;;;12.70;;
56321;SDS011;42227;6.376;-10.782;2023-08-30T01:35:55;18.73;;;12.00;;
56321;SDS011;42227;6.376;-10.782;2023-08-30T01:38:26;13.65;;;8.13;;
56321;SDS011;42227;6.376;-10.782;2023-08-30T01:40:58;20.50;;;7.68;;
56321;SDS011;42227;6.376;-10.782;2023-08-30T01:43:28;9.30;;;7.65;;
56321;SDS011;42227;6.376;-10.782;2023-08-30T01:45:59;18.67;;;10.00;;
56321;SDS011;42227;6.376;-10.782;2023-08-30T01:48:29;10.15;;;7.88;;
56321;SDS011;42227;6.376;-10.782;2023-08-30T01:50:59;12.88;;;8.50;;
56321;SDS011;42227;6.376;-10.782;2023-08-30T01:53:28;14.38;;;9.60;;
56321;SDS011;42227;6.376;-10.782;2023-08-30T01:55:58;11.93;;;9.02;;
56321;SDS011;42227;6.376;-10.782;2023-08-30T01:58:26;29.25;;;9.45;;
56321;SDS011;42227;6.376;-10.782;2023-08-30T02:00:55;10.32;;;8.85;;
56321;SDS011;42227;6.376;-10.782;2023-08-30T02:03:24;13.68;;;8.82;;
56321;SDS011;42227;6.376;-10.782;2023-08-30T02:06:04;17.98;;;9.93;;
56321;SDS011;42227;6.376;-10.782;2023-08-30T02:08:55;23.05;;;13.27;;
56321;SDS011;42227;6.376;-10.782;2023-08-30T02:11:42;16.65;;;10.82;;
56321;SDS011;42227;6.376;-10.782;2023-08-30T02:14:13;13.77;;;9.53;;
56321;SDS011;42227;6.376;-10.782;2023-08-30T02:16:47;11.32;;;8.82;;
56321;SDS011;42227;6.376;-10.782;2023-08-30T02:21:44;8.38;;;5.55;;
56321;SDS011;42227;6.376;-10.782;2023-08-30T02:24:14;11.95;;;8.32;;
56321;SDS011;42227;6.376;-10.782;2023-08-30T02:26:42;11.75;;;5.90;;
56321;SDS011;42227;6.376;-10.782;2023-08-30T02:29:12;6.55;;;5.20;;
56321;SDS011;42227;6.376;-10.782;2023-08-30T02:31:40;6.32;;;4.35;;
56321;SDS011;42227;6.376;-10.782;2023-08-30T02:34:09;7.50;;;4.60;;
56321;SDS011;42227;6.376;-10.782;2023-08-30T02:36:37;7.80;;;4.50;;
56321;SDS011;42227;6.376;-10.782;2023-08-30T02:39:05;9.20;;;5.63;;
56321;SDS011;42227;6.376;-10.782;2023-08-30T02:41:34;9.02;;;5.30;;
56321;SDS011;42227;6.376;-10.782;2023-08-30T02:44:02;10.27;;;5.25;;
56321;SDS011;42227;6.376;-10.782;2023-08-30T02:46:31;11.13;;;6.85;;
56321;SDS011;42227;6.376;-10.782;2023-08-30T02:48:59;17.33;;;6.53;;
56321;SDS011;42227;6.376;-10.782;2023-08-30T02:51:28;11.77;;;5.43;;
56321;SDS011;42227;6.376;-10.782;2023-08-30T02:53:57;9.88;;;5.68;;
56321;SDS011;42227;6.376;-10.782;2023-08-30T02:56:26;11.40;;;3.40;;
56321;SDS011;42227;6.376;-10.782;2023-08-30T02:58:54;8.75;;;4.47;;
56321;SDS011;42227;6.376;-10.782;2023-08-30T03:01:22;11.52;;;5.15;;
56321;SDS011;42227;6.376;-10.782;2023-08-30T03:03:51;6.68;;;3.58;;
56321;SDS011;42227;6.376;-10.782;2023-08-30T03:06:20;9.75;;;4.57;;
56321;SDS011;42227;6.376;-10.782;2023-08-30T03:08:48;10.27;;;5.15;;
56321;SDS011;42227;6.376;-10.782;2023-08-30T03:11:17;11.82;;;5.07;;
56321;SDS011;42227;6.376;-10.782;2023-08-30T03:13:50;16.52;;;5.80;;
56321;SDS011;42227;6.376;-10.782;2023-08-30T03:16:21;10.65;;;4.97;;
56321;SDS011;42227;6.376;-10.782;2023-08-30T03:18:49;6.88;;;4.30;;
56321;SDS011;42227;6.376;-10.782;2023-08-30T03:21:18;8.15;;;4.35;;
56321;SDS011;42227;6.376;-10.782;2023-08-30T03:23:46;10.90;;;3.95;;
56321;SDS011;42227;6.376;-10.782;2023-08-30T03:26:15;10.85;;;4.93;;
56321;SDS011;42227;6.376;-10.782;2023-08-30T03:28:44;8.13;;;4.35;;
56321;SDS011;42227;6.376;-10.782;2023-08-30T03:31:17;6.57;;;3.60;;
56321;SDS011;42227;6.376;-10.782;2023-08-30T03:33:47;10.10;;;4.40;;
56321;SDS011;42227;6.376;-10.782;2023-08-30T03:36:17;4.25;;;3.25;;
56321;SDS011;42227;6.376;-10.782;2023-08-30T03:38:46;6.65;;;3.03;;
56321;SDS011;42227;6.376;-10.782;2023-08-30T03:41:14;5.13;;;3.40;;
56321;SDS011;42227;6.376;-10.782;2023-08-30T03:43:43;4.28;;;2.75;;
56321;SDS011;42227;6.376;-10.782;2023-08-30T03:46:12;6.38;;;4.03;;
56321;SDS011;42227;6.376;-10.782;2023-08-30T03:48:40;4.57;;;3.70;;
56321;SDS011;42227;6.376;-10.782;2023-08-30T03:51:10;6.10;;;4.05;;
56321;SDS011;42227;6.376;-10.782;2023-08-30T03:53:39;7.93;;;4.53;;
56321;SDS011;42227;6.376;-10.782;2023-08-30T03:56:07;8.02;;;4.78;;
56321;SDS011;42227;6.376;-10.782;2023-08-30T03:58:37;9.15;;;4.65;;
56321;SDS011;42227;6.376;-10.782;2023-08-30T04:01:05;11.18;;;4.25;;
56321;SDS011;42227;6.376;-10.782;2023-08-30T04:03:34;9.45;;;4.78;;
56321;SDS011;42227;6.376;-10.782;2023-08-30T04:06:02;11.43;;;5.55;;
56321;SDS011;42227;6.376;-10.782;2023-08-30T04:08:31;6.57;;;4.22;;
56321;SDS011;42227;6.376;-10.782;2023-08-30T04:10:59;10.88;;;5.15;;
56321;SDS011;42227;6.376;-10.782;2023-08-30T04:13:29;8.77;;;3.75;;
56321;SDS011;42227;6.376;-10.782;2023-08-30T04:15:57;9.70;;;5.60;;
56321;SDS011;42227;6.376;-10.782;2023-08-30T04:18:26;15.35;;;7.55;;
56321;SDS011;42227;6.376;-10.782;2023-08-30T04:20:54;11.93;;;7.97;;
56321;SDS011;42227;6.376;-10.782;2023-08-30T04:23:24;12.43;;;7.53;;
56321;SDS011;42227;6.376;-10.782;2023-08-30T04:25:53;9.85;;;6.38;;
56321;SDS011;42227;6.376;-10.782;2023-08-30T04:28:21;7.95;;;5.53;;
56321;SDS011;42227;6.376;-10.782;2023-08-30T04:30:53;15.93;;;4.90;;
56321;SDS011;42227;6.376;-10.782;2023-08-30T04:33:23;7.20;;;4.07;;
56321;SDS011;42227;6.376;-10.782;2023-08-30T04:35:52;6.32;;;3.95;;
56321;SDS011;42227;6.376;-10.782;2023-08-30T04:38:21;7.55;;;4.60;;
56321;SDS011;42227;6.376;-10.782;2023-08-30T04:40:49;5.32;;;4.40;;
56321;SDS011;42227;6.376;-10.782;2023-08-30T04:43:19;8.18;;;4.20;;
56321;SDS011;42227;6.376;-10.782;2023-08-30T04:45:48;13.43;;;4.63;;
56321;SDS011;42227;6.376;-10.782;2023-08-30T04:48:16;9.60;;;4.03;;
56321;SDS011;42227;6.376;-10.782;2023-08-30T04:50:45;10.15;;;4.78;;
56321;SDS011;42227;6.376;-10.782;2023-08-30T04:53:14;6.78;;;4.90;;
56321;SDS011;42227;6.376;-10.782;2023-08-30T04:55:42;7.25;;;4.35;;
56321;SDS011;42227;6.376;-10.782;2023-08-30T04:58:11;6.10;;;3.42;;
56321;SDS011;42227;6.376;-10.782;2023-08-30T05:00:40;5.93;;;4.22;;
56321;SDS011;42227;6.376;-10.782;2023-08-30T05:03:08;8.10;;;4.93;;
56321;SDS011;42227;6.376;-10.782;2023-08-30T05:05:37;15.85;;;12.77;;
56321;SDS011;42227;6.376;-10.782;2023-08-30T05:08:07;12.55;;;8.68;;
56321;SDS011;42227;6.376;-10.782;2023-08-30T05:10:36;12.68;;;8.70;;
56321;SDS011;42227;6.376;-10.782;2023-08-30T05:13:04;22.27;;;11.77;;
56321;SDS011;42227;6.376;-10.782;2023-08-30T05:15:33;14.95;;;10.93;;
56321;SDS011;42227;6.376;-10.782;2023-08-30T05:18:01;11.07;;;9.20;;
56321;SDS011;42227;6.376;-10.782;2023-08-30T05:20:30;12.27;;;7.78;;
56321;SDS011;42227;6.376;-10.782;2023-08-30T05:22:58;12.05;;;8.52;;
56321;SDS011;42227;6.376;-10.782;2023-08-30T05:25:27;11.15;;;9.35;;
56321;SDS011;42227;6.376;-10.782;2023-08-30T05:27:56;11.70;;;8.95;;
56321;SDS011;42227;6.376;-10.782;2023-08-30T05:30:24;9.60;;;7.38;;
56321;SDS011;42227;6.376;-10.782;2023-08-30T05:32:55;9.77;;;6.75;;
56321;SDS011;42227;6.376;-10.782;2023-08-30T05:35:42;13.82;;;6.72;;
56321;SDS011;42227;6.376;-10.782;2023-08-30T05:38:24;17.77;;;6.03;;
56321;SDS011;42227;6.376;-10.782;2023-08-30T05:41:21;9.55;;;6.13;;
56321;SDS011;42227;6.376;-10.782;2023-08-30T05:43:50;9.43;;;6.15;;
56321;SDS011;42227;6.376;-10.782;2023-08-30T05:46:19;10.05;;;6.65;;
56321;SDS011;42227;6.376;-10.782;2023-08-30T05:48:48;11.65;;;6.88;;
56321;SDS011;42227;6.376;-10.782;2023-08-30T05:51:16;7.45;;;5.22;;
56321;SDS011;42227;6.376;-10.782;2023-08-30T05:53:45;8.60;;;6.90;;
56321;SDS011;42227;6.376;-10.782;2023-08-30T05:56:14;12.30;;;7.20;;
56321;SDS011;42227;6.376;-10.782;2023-08-30T05:58:44;8.18;;;6.82;;
56321;SDS011;42227;6.376;-10.782;2023-08-30T06:01:13;12.15;;;6.53;;
56321;SDS011;42227;6.376;-10.782;2023-08-30T06:03:41;8.48;;;6.35;;
56321;SDS011;42227;6.376;-10.782;2023-08-30T06:06:10;8.23;;;6.05;;
56321;SDS011;42227;6.376;-10.782;2023-08-30T06:08:39;9.30;;;5.18;;
56321;SDS011;42227;6.376;-10.782;2023-08-30T06:11:07;8.75;;;6.28;;
56321;SDS011;42227;6.376;-10.782;2023-08-30T06:13:36;8.93;;;6.10;;
56321;SDS011;42227;6.376;-10.782;2023-08-30T06:16:04;8.32;;;6.50;;
56321;SDS011;42227;6.376;-10.782;2023-08-30T06:18:32;12.63;;;8.20;;
56321;SDS011;42227;6.376;-10.782;2023-08-30T06:21:01;11.25;;;8.43;;
56321;SDS011;42227;6.376;-10.782;2023-08-30T06:23:30;8.52;;;7.30;;
56321;SDS011;42227;6.376;-10.782;2023-08-30T06:25:58;10.77;;;9.48;;
56321;SDS011;42227;6.376;-10.782;2023-08-30T06:28:26;10.32;;;8.18;;
56321;SDS011;42227;6.376;-10.782;2023-08-30T06:30:55;13.77;;;7.38;;
56321;SDS011;42227;6.376;-10.782;2023-08-30T06:33:23;13.10;;;7.60;;
56321;SDS011;42227;6.376;-10.782;2023-08-30T06:35:51;11.52;;;8.63;;
56321;SDS011;42227;6.376;-10.782;2023-08-30T06:38:19;17.10;;;8.80;;
56321;SDS011;42227;6.376;-10.782;2023-08-30T06:40:48;10.70;;;7.68;;
56321;SDS011;42227;6.376;-10.782;2023-08-30T06:43:16;11.65;;;10.35;;
56321;SDS011;42227;6.376;-10.782;2023-08-30T06:45:45;13.27;;;8.73;;
56321;SDS011;42227;6.376;-10.782;2023-08-30T06:48:13;9.13;;;8.23;;
56321;SDS011;42227;6.376;-10.782;2023-08-30T06:50:42;12.20;;;7.97;;
56321;SDS011;42227;6.376;-10.782;2023-08-30T06:53:10;14.15;;;9.90;;
56321;SDS011;42227;6.376;-10.782;2023-08-30T06:55:38;21.23;;;8.85;;
56321;SDS011;42227;6.376;-10.782;2023-08-30T06:58:07;7.13;;;5.50;;
56321;SDS011;42227;6.376;-10.782;2023-08-30T07:00:36;7.95;;;7.05;;
56321;SDS011;42227;6.376;-10.782;2023-08-30T07:03:04;9.80;;;8.65;;
56321;SDS011;42227;6.376;-10.782;2023-08-30T07:05:32;12.48;;;8.85;;
56321;SDS011;42227;6.376;-10.782;2023-08-30T07:08:01;9.43;;;8.35;;
56321;SDS011;42227;6.376;-10.782;2023-08-30T07:10:29;16.30;;;10.23;;
56321;SDS011;42227;6.376;-10.782;2023-08-30T07:12:58;9.57;;;7.50;;
56321;SDS011;42227;6.376;-10.782;2023-08-30T07:15:26;7.88;;;7.07;;
56321;SDS011;42227;6.376;-10.782;2023-08-30T07:17:54;11.85;;;8.60;;
56321;SDS011;42227;6.376;-10.782;2023-08-30T07:20:25;15.77;;;7.75;;
56321;SDS011;42227;6.376;-10.782;2023-08-30T07:22:53;12.65;;;8.45;;
56321;SDS011;42227;6.376;-10.782;2023-08-30T07:25:22;10.93;;;7.45;;
56321;SDS011;42227;6.376;-10.782;2023-08-30T07:27:50;18.08;;;8.25;;
56321;SDS011;42227;6.376;-10.782;2023-08-30T07:30:19;10.52;;;8.20;;
56321;SDS011;42227;6.376;-10.782;2023-08-30T07:32:47;6.60;;;5.32;;
56321;SDS011;42227;6.376;-10.782;2023-08-30T07:35:16;9.18;;;6.15;;
56321;SDS011;42227;6.376;-10.782;2023-08-30T07:37:44;6.80;;;5.47;;
56321;SDS011;42227;6.376;-10.782;2023-08-30T07:40:13;10.32;;;7.65;;
56321;SDS011;42227;6.376;-10.782;2023-08-30T07:42:41;11.68;;;6.50;;
56321;SDS011;42227;6.376;-10.782;2023-08-30T07:45:10;9.93;;;7.43;;
56321;SDS011;42227;6.376;-10.782;2023-08-30T07:47:38;10.10;;;7.22;;
56321;SDS011;42227;6.376;-10.782;2023-08-30T07:50:07;8.13;;;6.72;;
56321;SDS011;42227;6.376;-10.782;2023-08-30T07:52:35;12.40;;;8.10;;
56321;SDS011;42227;6.376;-10.782;2023-08-30T07:55:12;16.10;;;12.35;;
56321;SDS011;42227;6.376;-10.782;2023-08-30T07:57:41;8.85;;;7.85;;
56321;SDS011;42227;6.376;-10.782;2023-08-30T08:00:09;11.45;;;6.72;;
56321;SDS011;42227;6.376;-10.782;2023-08-30T08:02:39;8.80;;;7.15;;
56321;SDS011;42227;6.376;-10.782;2023-08-30T08:05:08;17.95;;;8.45;;
56321;SDS011;42227;6.376;-10.782;2023-08-30T08:07:38;10.32;;;8.10;;
56321;SDS011;42227;6.376;-10.782;2023-08-30T08:10:07;8.35;;;5.97;;
56321;SDS011;42227;6.376;-10.782;2023-08-30T08:12:35;8.52;;;5.88;;
56321;SDS011;42227;6.376;-10.782;2023-08-30T08:15:04;10.98;;;5.32;;
56321;SDS011;42227;6.376;-10.782;2023-08-30T08:17:33;10.52;;;4.65;;
56321;SDS011;42227;6.376;-10.782;2023-08-30T08:20:04;7.50;;;3.92;;
56321;SDS011;42227;6.376;-10.782;2023-08-30T08:22:33;6.00;;;3.75;;
56321;SDS011;42227;6.376;-10.782;2023-08-30T08:25:02;7.00;;;3.67;;
56321;SDS011;42227;6.376;-10.782;2023-08-30T08:27:42;9.05;;;4.75;;
56321;SDS011;42227;6.376;-10.782;2023-08-30T08:30:11;6.18;;;3.88;;
56321;SDS011;42227;6.376;-10.782;2023-08-30T08:32:39;8.50;;;4.47;;
56321;SDS011;42227;6.376;-10.782;2023-08-30T08:35:08;10.93;;;4.22;;
56321;SDS011;42227;6.376;-10.782;2023-08-30T08:37:36;5.93;;;4.60;;
56321;SDS011;42227;6.376;-10.782;2023-08-30T08:40:05;7.50;;;5.18;;
56321;SDS011;42227;6.376;-10.782;2023-08-30T08:42:34;6.97;;;4.53;;
56321;SDS011;42227;6.376;-10.782;2023-08-30T08:45:04;5.30;;;4.53;;
56321;SDS011;42227;6.376;-10.782;2023-08-30T08:47:32;9.07;;;5.40;;
56321;SDS011;42227;6.376;-10.782;2023-08-30T08:50:02;6.22;;;4.57;;
56321;SDS011;42227;6.376;-10.782;2023-08-30T08:52:31;7.55;;;5.70;;
56321;SDS011;42227;6.376;-10.782;2023-08-30T08:55:16;8.63;;;5.13;;
56321;SDS011;42227;6.376;-10.782;2023-08-30T08:57:45;13.27;;;5.60;;
56321;SDS011;42227;6.376;-10.782;2023-08-30T09:00:15;9.25;;;5.18;;
56321;SDS011;42227;6.376;-10.782;2023-08-30T09:02:44;9.98;;;7.10;;
56321;SDS011;42227;6.376;-10.782;2023-08-30T09:05:13;14.90;;;6.00;;
56321;SDS011;42227;6.376;-10.782;2023-08-30T09:07:43;8.57;;;5.80;;
56321;SDS011;42227;6.376;-10.782;2023-08-30T09:10:13;6.05;;;5.43;;
56321;SDS011;42227;6.376;-10.782;2023-08-30T09:12:41;10.68;;;6.53;;
56321;SDS011;42227;6.376;-10.782;2023-08-30T09:15:09;8.15;;;7.22;;
56321;SDS011;42227;6.376;-10.782;2023-08-30T09:17:38;11.52;;;7.88;;
56321;SDS011;42227;6.376;-10.782;2023-08-30T09:20:11;14.43;;;7.03;;
56321;SDS011;42227;6.376;-10.782;2023-08-30T09:22:41;7.10;;;5.05;;
56321;SDS011;42227;6.376;-10.782;2023-08-30T09:25:11;10.75;;;5.28;;
56321;SDS011;42227;6.376;-10.782;2023-08-30T09:27:56;5.05;;;3.47;;
56321;SDS011;42227;6.376;-10.782;2023-08-30T09:30:25;4.88;;;3.33;;
56321;SDS011;42227;6.376;-10.782;2023-08-30T09:33:00;5.18;;;3.72;;
56321;SDS011;42227;6.376;-10.782;2023-08-30T09:35:32;8.50;;;4.65;;
56321;SDS011;42227;6.376;-10.782;2023-08-30T09:38:07;5.65;;;3.58;;
56321;SDS011;42227;6.376;-10.782;2023-08-30T09:40:46;6.43;;;4.93;;
56321;SDS011;42227;6.376;-10.782;2023-08-30T09:43:18;6.32;;;4.03;;
56321;SDS011;42227;6.376;-10.782;2023-08-30T09:45:47;4.40;;;3.90;;
56321;SDS011;42227;6.376;-10.782;2023-08-30T09:48:20;9.27;;;3.03;;
56321;SDS011;42227;6.376;-10.782;2023-08-30T09:50:52;5.40;;;3.13;;
56321;SDS011;42227;6.376;-10.782;2023-08-30T09:53:21;6.97;;;3.80;;
56321;SDS011;42227;6.376;-10.782;2023-08-30T09:55:53;3.85;;;3.20;;
56321;SDS011;42227;6.376;-10.782;2023-08-30T09:58:22;3.33;;;2.42;;
56321;SDS011;42227;6.376;-10.782;2023-08-30T10:00:51;3.72;;;3.05;;
56321;SDS011;42227;6.376;-10.782;2023-08-30T10:03:20;6.57;;;2.88;;
56321;SDS011;42227;6.376;-10.782;2023-08-30T10:06:10;5.00;;;2.78;;
56321;SDS011;42227;6.376;-10.782;2023-08-30T10:08:39;2.95;;;2.63;;
56321;SDS011;42227;6.376;-10.782;2023-08-30T10:11:10;3.60;;;2.97;;
56321;SDS011;42227;6.376;-10.782;2023-08-30T10:13:39;4.38;;;2.55;;
56321;SDS011;42227;6.376;-10.782;2023-08-30T10:16:12;5.75;;;2.80;;
56321;SDS011;42227;6.376;-10.782;2023-08-30T10:18:50;4.00;;;2.90;;
56321;SDS011;42227;6.376;-10.782;2023-08-30T10:21:31;4.18;;;3.00;;
56321;SDS011;42227;6.376;-10.782;2023-08-30T10:24:03;3.83;;;2.88;;
56321;SDS011;42227;6.376;-10.782;2023-08-30T10:26:56;4.75;;;2.38;;
56321;SDS011;42227;6.376;-10.782;2023-08-30T10:29:27;3.53;;;2.05;;
56321;SDS011;42227;6.376;-10.782;2023-08-30T10:31:56;2.83;;;2.30;;
56321;SDS011;42227;6.376;-10.782;2023-08-30T10:34:31;1.88;;;1.70;;
56321;SDS011;42227;6.376;-10.782;2023-08-30T10:37:01;2.90;;;1.92;;
56321;SDS011;42227;6.376;-10.782;2023-08-30T10:39:37;3.67;;;2.53;;
56321;SDS011;42227;6.376;-10.782;2023-08-30T10:42:12;3.45;;;2.55;;
56321;SDS011;42227;6.376;-10.782;2023-08-30T10:47:40;4.47;;;2.38;;
56321;SDS011;42227;6.376;-10.782;2023-08-30T10:50:10;3.30;;;2.03;;
56321;SDS011;42227;6.376;-10.782;2023-08-30T10:52:39;3.83;;;2.65;;
56321;SDS011;42227;6.376;-10.782;2023-08-30T10:55:11;2.35;;;2.00;;
56321;SDS011;42227;6.376;-10.782;2023-08-30T10:57:43;3.05;;;2.63;;
56321;SDS011;42227;6.376;-10.782;2023-08-30T11:00:22;2.83;;;2.38;;
56321;SDS011;42227;6.376;-10.782;2023-08-30T11:02:51;3.67;;;2.50;;
56321;SDS011;42227;6.376;-10.782;2023-08-30T11:05:21;4.82;;;2.95;;
56321;SDS011;42227;6.376;-10.782;2023-08-30T11:07:54;6.07;;;3.10;;
56321;SDS011;42227;6.376;-10.782;2023-08-30T11:10:23;5.00;;;4.15;;
56321;SDS011;42227;6.376;-10.782;2023-08-30T11:12:52;8.95;;;5.95;;
56321;SDS011;42227;6.376;-10.782;2023-08-30T11:15:21;12.15;;;6.50;;
56321;SDS011;42227;6.376;-10.782;2023-08-30T11:17:49;9.25;;;7.53;;
56321;SDS011;42227;6.376;-10.782;2023-08-30T11:20:18;10.98;;;8.93;;
56321;SDS011;42227;6.376;-10.782;2023-08-30T11:22:48;7.40;;;4.97;;
56321;SDS011;42227;6.376;-10.782;2023-08-30T11:25:17;8.10;;;5.53;;
56321;SDS011;42227;6.376;-10.782;2023-08-30T11:27:46;6.50;;;4.50;;
56321;SDS011;42227;6.376;-10.782;2023-08-30T11:30:26;5.25;;;3.63;;
56321;SDS011;42227;6.376;-10.782;2023-08-30T11:32:57;8.23;;;4.95;;
56321;SDS011;42227;6.376;-10.782;2023-08-30T11:35:26;5.28;;;4.70;;
56321;SDS011;42227;6.376;-10.782;2023-08-30T11:37:54;6.45;;;5.15;;
56321;SDS011;42227;6.376;-10.782;2023-08-30T11:40:23;6.20;;;5.28;;
56321;SDS011;42227;6.376;-10.782;2023-08-30T11:42:52;4.78;;;3.80;;
56321;SDS011;42227;6.376;-10.782;2023-08-30T11:45:23;4.80;;;3.23;;
56321;SDS011;42227;6.376;-10.782;2023-08-30T11:47:54;4.85;;;3.35;;
56321;SDS011;42227;6.376;-10.782;2023-08-30T11:50:23;7.00;;;4.72;;
56321;SDS011;42227;6.376;-10.782;2023-08-30T11:52:54;7.43;;;5.45;;
56321;SDS011;42227;6.376;-10.782;2023-08-30T11:55:23;3.88;;;3.33;;
56321;SDS011;42227;6.376;-10.782;2023-08-30T11:57:52;4.78;;;3.05;;
56321;SDS011;42227;6.376;-10.782;2023-08-30T12:00:21;4.22;;;3.13;;
56321;SDS011;42227;6.376;-10.782;2023-08-30T12:02:51;3.42;;;2.60;;
56321;SDS011;42227;6.376;-10.782;2023-08-30T12:05:20;5.18;;;2.90;;
56321;SDS011;42227;6.376;-10.782;2023-08-30T12:07:49;3.22;;;2.17;;
56321;SDS011;42227;6.376;-10.782;2023-08-30T12:10:18;4.03;;;1.92;;
56321;SDS011;42227;6.376;-10.782;2023-08-30T12:12:46;3.33;;;1.95;;
56321;SDS011;42227;6.376;-10.782;2023-08-30T12:15:15;3.47;;;1.90;;
56321;SDS011;42227;6.376;-10.782;2023-08-30T12:17:43;2.17;;;1.65;;
56321;SDS011;42227;6.376;-10.782;2023-08-30T12:20:16;1.98;;;1.60;;
56321;SDS011;42227;6.376;-10.782;2023-08-30T12:22:45;2.65;;;1.67;;
56321;SDS011;42227;6.376;-10.782;2023-08-30T12:25:17;4.72;;;2.95;;
56321;SDS011;42227;6.376;-10.782;2023-08-30T12:27:46;5.07;;;3.03;;
56321;SDS011;42227;6.376;-10.782;2023-08-30T12:33:37;4.93;;;3.63;;
56321;SDS011;42227;6.376;-10.782;2023-08-30T12:36:06;4.95;;;3.40;;
56321;SDS011;42227;6.376;-10.782;2023-08-30T12:38:35;5.53;;;4.93;;
56321;SDS011;42227;6.376;-10.782;2023-08-30T12:41:04;9.10;;;6.00;;
56321;SDS011;42227;6.376;-10.782;2023-08-30T12:43:32;5.65;;;3.70;;
56321;SDS011;42227;6.376;-10.782;2023-08-30T12:46:01;3.42;;;2.50;;
56321;SDS011;42227;6.376;-10.782;2023-08-30T12:48:30;4.32;;;3.28;;
56321;SDS011;42227;6.376;-10.782;2023-08-30T12:50:59;5.47;;;4.22;;
56321;SDS011;42227;6.376;-10.782;2023-08-30T12:53:27;5.35;;;3.80;;
56321;SDS011;42227;6.376;-10.782;2023-08-30T12:55:56;6.07;;;4.13;;
56321;SDS011;42227;6.376;-10.782;2023-08-30T12:58:24;4.22;;;3.33;;
56321;SDS011;42227;6.376;-10.782;2023-08-30T13:00:53;2.88;;;2.38;;
56321;SDS011;42227;6.376;-10.782;2023-08-30T13:03:21;3.40;;;2.50;;
56321;SDS011;42227;6.376;-10.782;2023-08-30T13:05:50;3.33;;;2.60;;
56321;SDS011;42227;6.376;-10.782;2023-08-30T13:08:18;4.57;;;3.25;;
56321;SDS011;42227;6.376;-10.782;2023-08-30T13:10:47;2.28;;;2.00;;
56321;SDS011;42227;6.376;-10.782;2023-08-30T13:13:16;5.03;;;3.25;;
56321;SDS011;42227;6.376;-10.782;2023-08-30T13:15:44;4.35;;;3.30;;
56321;SDS011;42227;6.376;-10.782;2023-08-30T13:18:12;5.68;;;3.03;;
56321;SDS011;42227;6.376;-10.782;2023-08-30T13:20:41;3.97;;;3.30;;
56321;SDS011;42227;6.376;-10.782;2023-08-30T13:23:10;3.50;;;2.70;;
56321;SDS011;42227;6.376;-10.782;2023-08-30T13:25:42;4.18;;;3.15;;
56321;SDS011;42227;6.376;-10.782;2023-08-30T13:28:10;5.53;;;3.72;;
56321;SDS011;42227;6.376;-10.782;2023-08-30T13:30:43;7.35;;;4.45;;
56321;SDS011;42227;6.376;-10.782;2023-08-30T13:33:13;4.80;;;3.20;;
56321;SDS011;42227;6.376;-10.782;2023-08-30T13:35:42;5.47;;;3.00;;
56321;SDS011;42227;6.376;-10.782;2023-08-30T13:38:10;3.88;;;2.90;;
56321;SDS011;42227;6.376;-10.782;2023-08-30T13:40:38;4.72;;;3.30;;
56321;SDS011;42227;6.376;-10.782;2023-08-30T13:43:07;5.03;;;3.22;;
56321;SDS011;42227;6.376;-10.782;2023-08-30T13:45:36;3.75;;;2.53;;
56321;SDS011;42227;6.376;-10.782;2023-08-30T13:48:05;4.50;;;2.60;;
56321;SDS011;42227;6.376;-10.782;2023-08-30T13:50:34;5.95;;;3.13;;
56321;SDS011;42227;6.376;-10.782;2023-08-30T13:53:09;3.85;;;3.05;;
56321;SDS011;42227;6.376;-10.782;2023-08-30T13:55:38;4.28;;;2.47;;
56321;SDS011;42227;6.376;-10.782;2023-08-30T13:58:06;5.07;;;3.15;;
56321;SDS011;42227;6.376;-10.782;2023-08-30T14:00:35;5.47;;;3.22;;
56321;SDS011;42227;6.376;-10.782;2023-08-30T14:03:03;7.15;;;4.30;;
56321;SDS011;42227;6.376;-10.782;2023-08-30T14:05:31;4.05;;;3.25;;
56321;SDS011;42227;6.376;-10.782;2023-08-30T14:08:00;3.80;;;2.80;;
56321;SDS011;42227;6.376;-10.782;2023-08-30T14:10:28;19.95;;;18.05;;
56321;SDS011;42227;6.376;-10.782;2023-08-30T14:12:56;8.02;;;5.28;;
56321;SDS011;42227;6.376;-10.782;2023-08-30T14:15:25;5.97;;;3.85;;
56321;SDS011;42227;6.376;-10.782;2023-08-30T14:17:53;4.15;;;3.08;;
56321;SDS011;42227;6.376;-10.782;2023-08-30T14:20:22;4.18;;;3.45;;
56321;SDS011;42227;6.376;-10.782;2023-08-30T14:22:50;5.13;;;3.50;;
56321;SDS011;42227;6.376;-10.782;2023-08-30T14:25:19;4.50;;;3.92;;
56321;SDS011;42227;6.376;-10.782;2023-08-30T14:27:47;8.32;;;3.83;;
56321;SDS011;42227;6.376;-10.782;2023-08-30T14:30:16;6.85;;;4.10;;
56321;SDS011;42227;6.376;-10.782;2023-08-30T14:32:44;3.60;;;2.55;;
56321;SDS011;42227;6.376;-10.782;2023-08-30T14:35:13;3.90;;;3.25;;
56321;SDS011;42227;6.376;-10.782;2023-08-30T14:37:43;6.00;;;4.18;;
56321;SDS011;42227;6.376;-10.782;2023-08-30T14:40:11;8.00;;;4.10;;
56321;SDS011;42227;6.376;-10.782;2023-08-30T14:42:39;5.22;;;3.83;;
56321;SDS011;42227;6.376;-10.782;2023-08-30T14:45:08;13.63;;;3.45;;
56321;SDS011;42227;6.376;-10.782;2023-08-30T14:47:37;8.57;;;4.00;;
56321;SDS011;42227;6.376;-10.782;2023-08-30T14:50:05;4.82;;;4.30;;
56321;SDS011;42227;6.376;-10.782;2023-08-30T14:52:34;7.07;;;5.85;;
56321;SDS011;42227;6.376;-10.782;2023-08-30T14:55:03;8.15;;;4.35;;
56321;SDS011;42227;6.376;-10.782;2023-08-30T14:57:35;4.72;;;3.85;;
56321;SDS011;42227;6.376;-10.782;2023-08-30T15:00:04;5.00;;;3.75;;